Time;durP1;ratioP1;P1;durP2;ratioP2;P2;SDS_P1;SDS_P2;PMS_P1;PMS_P2;Temp;Humidity;BMP_temperature;BMP_pressure;BME280_temperature;BME280_humidity;BME280_pressure;Samples;Min_cycle;Max_cycle;Signal;HPM_P1;HPM_P2
2023/12/23 00:03:31;;;;;;;3.50;2.13;;;8.50;99.90;;;8.84;96.74;97181.63;10408733;28;20221;-68
2023/12/23 00:08:34;;;;;;;3.22;1.77;;;8.60;99.90;;;8.71;98.74;97204.75;10407093;28;20279;-68
2023/12/23 00:13:39;;;;;;;3.92;2.35;;;8.50;99.90;;;8.60;100.00;97213.47;10407326;28;20955;-68
2023/12/23 00:18:43;;;;;;;3.17;2.40;;;8.40;99.90;;;8.50;100.00;97235.91;10495253;28;20236;-68
2023/12/23 00:23:46;;;;;;;2.70;2.30;;;8.30;99.90;;;8.37;100.00;97232.56;10494899;28;20285;-68
2023/12/23 00:28:51;;;;;;;3.67;2.30;;;8.10;99.90;;;8.44;100.00;97239.75;10465594;28;20227;-68
2023/12/23 00:33:54;;;;;;;5.47;2.70;;;8.20;99.90;;;8.29;100.00;97261.00;10490251;28;20274;-69
2023/12/23 00:38:57;;;;;;;3.33;2.20;;;8.10;99.90;;;8.16;100.00;97283.16;10451500;28;20724;-69
2023/12/23 00:44:02;;;;;;;3.85;2.17;;;7.90;99.90;;;8.19;100.00;97279.13;10443791;28;20601;-69
2023/12/23 00:49:05;;;;;;;5.60;2.50;;;8.00;99.90;;;8.09;100.00;97279.38;10456962;28;20229;-69
2023/12/23 00:54:08;;;;;;;2.97;2.23;;;7.80;99.90;;;7.97;100.00;97279.56;10489415;28;20228;-69
2023/12/23 00:59:12;;;;;;;5.43;2.70;;;7.80;99.90;;;8.00;100.00;97297.53;10499426;28;20284;-69
2023/12/23 01:04:16;;;;;;;4.87;2.60;;;7.80;99.90;;;7.83;100.00;97306.72;10492865;28;20623;-69
2023/12/23 01:09:19;;;;;;;5.27;2.43;;;7.70;99.90;;;7.99;100.00;97313.59;10490190;28;20238;-69
2023/12/23 01:14:23;;;;;;;4.40;2.37;;;7.90;99.90;;;7.97;100.00;97325.34;10498586;28;20409;-68
2023/12/23 01:19:26;;;;;;;5.83;2.53;;;7.90;99.90;;;7.95;100.00;97323.50;10495357;28;20618;-69
2023/12/23 01:24:30;;;;;;;4.53;2.40;;;7.70;99.90;;;7.97;100.00;97348.25;10494741;28;20223;-69
2023/12/23 01:29:34;;;;;;;5.00;2.43;;;7.80;99.90;;;7.85;100.00;97358.59;10498214;28;20332;-68
2023/12/23 01:34:38;;;;;;;3.13;2.30;;;7.60;99.90;;;7.88;100.00;97337.53;10496690;28;20220;-69
2023/12/23 01:39:41;;;;;;;4.97;2.73;;;7.60;99.90;;;7.93;100.00;97304.75;10495113;28;20255;-69
2023/12/23 01:44:46;;;;;;;3.40;2.47;;;7.50;99.90;;;7.89;100.00;97341.84;10495575;28;20230;-69
2023/12/23 01:49:49;;;;;;;3.70;2.20;;;7.50;99.90;;;7.89;100.00;97350.34;10489525;28;20608;-69
2023/12/23 01:54:53;;;;;;;3.10;1.90;;;7.50;99.90;;;7.83;100.00;97384.72;10490584;28;20270;-68
2023/12/23 01:59:57;;;;;;;4.43;2.10;;;7.50;99.90;;;7.83;100.00;97380.50;10490549;28;20315;-68
2023/12/23 02:05:01;;;;;;;3.30;2.43;;;7.60;99.90;;;7.81;100.00;97386.28;10442362;28;20226;-68
2023/12/23 02:10:06;;;;;;;3.87;2.30;;;7.60;99.90;;;7.96;100.00;97378.72;10481856;28;20228;-68
2023/12/23 02:15:14;;;;;;;2.63;2.20;;;7.60;99.90;;;7.89;100.00;97382.53;10442298;28;20249;-69
2023/12/23 02:20:17;;;;;;;5.10;2.77;;;7.60;99.90;;;7.77;100.00;97379.28;10406277;28;20230;-71
2023/12/23 02:25:23;;;;;;;6.60;2.83;;;7.50;99.90;;;7.96;100.00;97371.97;10466109;28;20228;-70
2023/12/23 02:30:28;;;;;;;2.63;2.40;;;7.60;99.90;;;7.95;100.00;97380.34;10438106;28;20791;-69
2023/12/23 02:35:31;;;;;;;4.70;2.63;;;7.60;99.90;;;8.01;100.00;97390.94;10436700;28;20590;-69
2023/12/23 02:40:36;;;;;;;6.77;3.20;;;7.70;99.90;;;8.03;100.00;97394.41;10409726;28;20335;-68
2023/12/23 02:45:39;;;;;;;3.87;2.60;;;7.70;99.90;;;8.08;100.00;97393.03;10433864;28;20232;-70
2023/12/23 02:50:42;;;;;;;2.83;2.60;;;7.70;99.90;;;8.06;100.00;97404.78;10492703;28;20236;-69
2023/12/23 02:55:46;;;;;;;5.15;2.45;;;7.70;99.90;;;8.16;100.00;97420.63;10496168;28;20747;-68
2023/12/23 03:00:50;;;;;;;5.07;2.00;;;7.80;99.90;;;8.21;100.00;97412.47;10445650;28;20268;-69
2023/12/23 03:05:54;;;;;;;3.83;2.27;;;7.80;99.90;;;8.25;100.00;97422.03;10407799;28;20225;-69
2023/12/23 03:10:58;;;;;;;4.40;2.37;;;7.90;99.90;;;8.20;100.00;97414.91;10409822;28;20252;-69
2023/12/23 03:16:01;;;;;;;3.83;2.00;;;7.90;99.90;;;8.13;100.00;97423.84;10443852;28;20228;-68
2023/12/23 03:21:05;;;;;;;3.87;2.33;;;7.90;99.90;;;8.21;100.00;97424.28;10484349;28;20224;-68
2023/12/23 03:26:09;;;;;;;3.67;2.43;;;8.00;99.90;;;8.17;100.00;97409.63;10492369;28;20793;-69
2023/12/23 03:31:12;;;;;;;4.50;2.27;;;7.90;99.90;;;8.20;100.00;97412.34;10488788;28;20239;-68
2023/12/23 03:36:18;;;;;;;3.20;2.50;;;7.90;99.90;;;8.23;100.00;97405.78;10488534;28;20220;-68
2023/12/23 03:41:22;;;;;;;3.67;2.30;;;7.90;99.90;;;8.19;100.00;97420.78;10429105;28;20230;-68
2023/12/23 03:46:27;;;;;;;2.40;2.20;;;7.90;99.90;;;8.07;100.00;97414.19;10477107;28;20224;-68
2023/12/23 03:51:31;;;;;;;3.73;2.10;;;7.80;99.90;;;8.02;100.00;97435.06;10443971;28;20229;-69
2023/12/23 03:56:35;;;;;;;4.53;2.60;;;7.70;99.90;;;8.06;100.00;97426.81;10412333;28;20235;-69
2023/12/23 04:01:38;;;;;;;3.33;2.03;;;7.80;99.90;;;7.97;100.00;97414.41;10416724;28;20237;-69
2023/12/23 04:06:41;;;;;;;3.00;2.27;;;7.60;99.90;;;7.96;100.00;97417.75;10420592;28;20654;-68
2023/12/23 04:11:46;;;;;;;4.63;2.13;;;7.70;99.90;;;7.86;100.00;97416.31;10413227;28;20324;-68
2023/12/23 04:16:49;;;;;;;3.50;2.77;;;7.60;99.90;;;8.01;100.00;97398.56;10456702;28;20231;-68
2023/12/23 04:21:52;;;;;;;4.23;2.70;;;7.70;99.90;;;7.96;100.00;97407.59;10500938;28;20332;-69
2023/12/23 04:26:57;;;;;;;4.27;2.50;;;7.60;99.90;;;7.92;100.00;97394.56;10493304;28;20307;-69
2023/12/23 04:32:00;;;;;;;2.53;2.20;;;7.60;99.90;;;7.91;100.00;97398.78;10496797;28;20327;-68
2023/12/23 04:37:04;;;;;;;3.33;2.57;;;7.50;99.90;;;7.92;100.00;97398.00;10447039;28;20224;-68
2023/12/23 04:42:08;;;;;;;4.50;2.40;;;7.60;99.90;;;7.96;100.00;97402.50;10443780;28;20318;-68
2023/12/23 04:47:12;;;;;;;2.30;1.87;;;7.60;99.90;;;7.99;100.00;97396.72;10479550;28;20303;-69
2023/12/23 04:52:15;;;;;;;2.70;2.13;;;7.60;99.90;;;8.03;100.00;97409.69;10446841;28;20221;-68
2023/12/23 04:57:20;;;;;;;4.40;2.40;;;7.70;99.90;;;7.92;100.00;97395.44;10493122;28;20232;-68
2023/12/23 05:02:23;;;;;;;2.27;1.70;;;7.60;99.90;;;7.81;100.00;97411.72;10484817;28;20737;-68
2023/12/23 05:07:27;;;;;;;3.10;2.23;;;7.50;99.90;;;8.00;100.00;97408.63;10413914;28;20709;-67
2023/12/23 05:12:31;;;;;;;3.13;2.03;;;7.50;99.90;;;8.09;100.00;97404.94;10483171;28;20231;-68
2023/12/23 05:17:35;;;;;;;3.80;1.90;;;7.60;99.90;;;7.94;100.00;97398.09;10496451;28;20311;-69
2023/12/23 05:22:38;;;;;;;2.37;1.97;;;7.60;99.90;;;7.96;100.00;97412.66;10496305;28;21882;-68
2023/12/23 05:27:43;;;;;;;2.83;1.93;;;7.60;99.90;;;8.04;100.00;97396.19;10497363;28;20264;-69
2023/12/23 05:32:46;;;;;;;1.80;1.70;;;7.60;99.90;;;7.91;100.00;97393.69;10492741;28;20345;-68
2023/12/23 05:37:49;;;;;;;3.60;2.20;;;7.50;99.90;;;7.85;100.00;97372.97;10494687;28;20259;-69
2023/12/23 05:42:54;;;;;;;3.20;2.03;;;7.40;99.90;;;7.81;100.00;97371.03;10503433;28;20220;-68
2023/12/23 05:47:57;;;;;;;2.63;2.03;;;7.40;99.90;;;7.75;100.00;97375.75;10490634;28;20242;-68
2023/12/23 05:53:00;;;;;;;3.60;1.93;;;7.40;99.90;;;7.84;100.00;97386.47;10494236;28;20768;-69
2023/12/23 05:58:05;;;;;;;1.73;1.60;;;7.40;99.90;;;7.66;100.00;97394.75;10495914;28;20764;-69
2023/12/23 06:03:08;;;;;;;1.60;1.50;;;7.40;99.90;;;7.79;100.00;97398.06;10447987;28;20598;-68
2023/12/23 06:08:11;;;;;;;2.00;1.77;;;7.40;99.90;;;7.79;100.00;97388.75;10418221;28;20234;-70
2023/12/23 06:13:16;;;;;;;2.40;1.73;;;7.40;99.90;;;7.74;100.00;97386.72;10491029;28;20703;-69
2023/12/23 06:18:19;;;;;;;1.90;1.57;;;7.30;99.90;;;7.73;100.00;97377.34;10451506;28;20257;-69
2023/12/23 06:23:22;;;;;;;2.43;1.50;;;7.40;99.90;;;7.65;100.00;97389.59;10453300;28;20285;-70
2023/12/23 06:28:26;;;;;;;1.23;1.20;;;7.30;99.90;;;7.60;100.00;97396.94;10483686;28;20366;-69
2023/12/23 06:33:30;;;;;;;1.93;1.50;;;7.10;99.90;;;7.49;100.00;97399.59;10480525;28;20236;-68
2023/12/23 06:38:33;;;;;;;1.50;1.40;;;7.00;99.90;;;7.58;100.00;97392.53;10484576;28;20738;-69
2023/12/23 06:43:37;;;;;;;1.60;1.50;;;7.00;99.90;;;7.57;100.00;97386.56;10441874;28;21624;-68
2023/12/23 06:48:53;;;;;;;1.20;1.10;;;7.00;99.90;;;7.46;100.00;97377.41;10405796;28;20306;-69
2023/12/23 06:53:57;;;;;;;1.60;1.50;;;7.00;99.90;;;7.54;100.00;97376.22;10408063;28;20229;-71
2023/12/23 06:59:02;;;;;;;1.50;1.50;;;7.00;99.90;;;7.48;100.00;97370.78;10412125;28;20660;-69
2023/12/23 07:04:06;;;;;;;1.63;1.53;;;6.90;99.90;;;7.47;100.00;97369.03;10441821;28;20223;-69
2023/12/23 07:09:10;;;;;;;1.30;1.30;;;7.00;99.90;;;7.52;100.00;97362.53;10480381;28;20378;-69
2023/12/23 07:14:14;;;;;;;1.40;1.40;;;7.00;99.90;;;7.48;100.00;97365.69;10444371;28;20220;-69
2023/12/23 07:19:17;;;;;;;1.30;1.30;;;7.00;99.90;;;7.49;100.00;97366.56;10448876;28;20230;-71
2023/12/23 07:24:21;;;;;;;1.40;1.30;;;7.00;99.90;;;7.40;100.00;97359.25;10415129;28;20228;-68
2023/12/23 07:29:26;;;;;;;1.40;1.40;;;7.00;99.90;;;7.49;100.00;97357.25;10431383;28;20701;-65
2023/12/23 07:34:29;;;;;;;1.40;1.30;;;7.00;99.90;;;7.48;100.00;97365.69;10492858;28;20230;-68
2023/12/23 07:39:32;;;;;;;1.17;1.17;;;7.10;99.90;;;7.45;100.00;97366.38;10487092;28;20234;-68
2023/12/23 07:44:36;;;;;;;1.40;1.40;;;7.10;99.90;;;7.42;100.00;97370.41;10488644;28;20235;-66
2023/12/23 07:49:40;;;;;;;1.87;1.60;;;7.00;99.90;;;7.50;100.00;97371.75;10480622;28;20232;-67
2023/12/23 07:54:43;;;;;;;1.20;1.20;;;7.10;99.90;;;7.51;100.00;97385.34;10462659;28;20749;-68
2023/12/23 07:59:48;;;;;;;1.23;1.20;;;7.10;99.90;;;7.63;100.00;97386.94;10455048;28;20323;-68
2023/12/23 08:04:52;;;;;;;1.63;1.40;;;7.20;99.90;;;7.57;100.00;97398.41;10455039;28;20623;-67
2023/12/23 08:09:55;;;;;;;2.00;1.83;;;7.30;99.90;;;7.57;100.00;97393.34;10441765;28;20220;-68
2023/12/23 08:15:00;;;;;;;1.60;1.50;;;7.20;99.90;;;7.61;100.00;97393.63;10477079;28;20613;-67
2023/12/23 08:20:03;;;;;;;1.50;1.40;;;7.20;99.90;;;7.60;100.00;97393.50;10438102;28;20355;-69
2023/12/23 08:25:07;;;;;;;1.23;1.23;;;7.30;99.90;;;7.67;100.00;97394.00;10480944;28;20231;-68
2023/12/23 08:30:12;;;;;;;1.60;1.50;;;7.30;99.90;;;7.71;100.00;97396.72;10484908;28;20667;-68
2023/12/23 08:35:16;;;;;;;1.23;1.23;;;7.50;99.90;;;7.73;100.00;97390.94;10494126;28;20650;-68
2023/12/23 08:40:19;;;;;;;2.63;1.30;;;7.40;99.90;;;7.76;100.00;97395.34;10489129;28;20224;-68
2023/12/23 08:45:23;;;;;;;1.40;1.37;;;7.50;99.90;;;7.87;100.00;97396.88;10498356;28;20595;-68
2023/12/23 08:50:27;;;;;;;1.10;1.10;;;7.50;99.90;;;7.79;100.00;97408.25;10488346;28;20232;-68
2023/12/23 08:55:30;;;;;;;1.30;1.10;;;7.50;99.90;;;7.74;100.00;97394.34;10468181;28;22015;-69
2023/12/23 09:00:35;;;;;;;1.50;1.40;;;7.50;99.90;;;7.84;100.00;97391.56;10451507;28;20240;-69
2023/12/23 09:05:38;;;;;;;2.10;1.60;;;7.50;99.90;;;7.78;100.00;97391.19;10410694;28;20242;-69
2023/12/23 09:10:42;;;;;;;1.80;1.70;;;7.60;99.90;;;7.71;100.00;97404.34;10421894;28;20255;-69
2023/12/23 09:15:46;;;;;;;1.37;1.37;;;7.50;99.90;;;7.71;100.00;97389.97;10471722;28;20233;-68
2023/12/23 09:20:50;;;;;;;1.40;1.40;;;7.50;99.90;;;7.72;100.00;97390.84;10451217;28;20228;-68
2023/12/23 09:25:53;;;;;;;2.53;1.40;;;7.50;99.90;;;7.71;100.00;97414.53;10487866;28;20237;-68
2023/12/23 09:30:57;;;;;;;1.47;1.37;;;7.50;99.90;;;7.77;100.00;97414.88;10490504;28;20236;-67
2023/12/23 09:36:01;;;;;;;1.20;1.20;;;7.60;99.90;;;7.75;100.00;97439.34;10483308;28;20337;-68
2023/12/23 09:41:04;;;;;;;1.50;1.40;;;7.50;99.90;;;7.80;100.00;97430.34;10442827;28;20224;-68
2023/12/23 09:46:09;;;;;;;1.50;1.43;;;7.50;99.90;;;7.79;100.00;97433.69;10460120;28;20229;-71
2023/12/23 09:51:12;;;;;;;1.27;1.27;;;7.50;99.90;;;7.84;100.00;97448.44;10470321;28;20611;-68
2023/12/23 09:56:16;;;;;;;1.50;1.40;;;7.60;99.90;;;7.87;100.00;97443.53;10472160;28;20244;-68
2023/12/23 10:01:20;;;;;;;1.63;1.60;;;7.60;99.90;;;7.92;100.00;97436.16;10488405;28;20223;-68
2023/12/23 10:06:25;;;;;;;1.10;1.10;;;7.70;99.90;;;7.86;100.00;97431.56;10480178;28;20221;-69
2023/12/23 10:11:28;;;;;;;1.63;1.50;;;7.60;99.90;;;7.87;100.00;97413.00;10424441;28;20322;-66
2023/12/23 10:16:33;;;;;;;1.50;1.50;;;7.60;99.90;;;7.96;100.00;97410.13;10416934;28;20233;-69
2023/12/23 10:21:36;;;;;;;1.37;1.37;;;7.70;99.90;;;8.11;100.00;97420.34;10412159;28;20232;-68
2023/12/23 10:26:42;;;;;;;2.37;1.40;;;7.80;99.90;;;8.13;100.00;97414.53;10439832;28;20228;-69
2023/12/23 10:31:51;;;;;;;1.30;1.20;;;7.90;99.90;;;8.19;100.00;97423.34;10417744;28;20245;-68
2023/12/23 10:36:55;;;;;;;1.70;1.13;;;7.80;99.90;;;8.16;100.00;97406.22;10410872;28;20790;-68
2023/12/23 10:42:04;;;;;;;2.40;2.17;;;7.90;99.90;;;8.16;100.00;97426.59;10407617;28;20973;-68
2023/12/23 10:47:10;;;;;;;1.43;1.43;;;8.00;99.90;;;8.26;99.81;97418.69;10481593;28;20224;-68
2023/12/23 10:52:15;;;;;;;2.30;2.20;;;8.00;99.90;;;8.40;98.97;97414.44;10480690;28;20231;-67
2023/12/23 10:57:20;;;;;;;1.40;1.40;;;8.10;99.90;;;8.33;98.76;97405.53;10488477;28;20220;-66
2023/12/23 11:02:29;;;;;;;1.27;1.17;;;8.10;99.90;;;8.53;97.35;97400.75;10478553;28;20869;-68
2023/12/23 11:07:39;;;;;;;1.43;1.33;;;8.20;99.90;;;8.49;96.99;97402.22;10453336;28;20239;-68
2023/12/23 11:12:43;;;;;;;1.37;1.27;;;8.30;99.90;;;8.49;97.04;97404.75;10435580;28;20233;-67
2023/12/23 11:17:48;;;;;;;1.20;1.20;;;8.20;99.90;;;8.63;96.56;97436.13;10410969;28;20325;-68
2023/12/23 11:22:51;;;;;;;1.42;1.35;;;8.20;99.90;;;8.67;96.45;97429.53;10409084;28;20294;-68
2023/12/23 11:28:09;;;;;;;1.08;1.08;;;8.30;99.90;;;8.68;95.72;97431.31;10429332;28;20242;-67
2023/12/23 11:33:14;;;;;;;1.92;1.83;;;8.20;99.90;;;8.71;94.56;97431.47;10439398;28;20232;-67
2023/12/23 11:38:18;;;;;;;1.50;1.40;;;8.40;99.90;;;8.54;95.81;97430.50;10416730;28;20701;-68
2023/12/23 11:43:22;;;;;;;1.50;1.42;;;8.20;99.90;;;8.66;95.38;97420.16;10487048;28;20246;-70
2023/12/23 11:48:26;;;;;;;1.97;1.80;;;8.40;99.90;;;8.63;94.16;97419.97;10480474;28;20228;-68
2023/12/23 11:53:30;;;;;;;1.20;1.20;;;8.30;99.90;;;8.63;95.37;97409.78;10486562;28;20584;-67
2023/12/23 11:58:33;;;;;;;1.20;1.20;;;8.30;99.90;;;8.56;96.13;97418.75;10417221;28;20744;-69
2023/12/23 12:03:38;;;;;;;1.27;1.20;;;8.20;99.90;;;8.59;96.47;97423.16;10397063;28;20675;-68
2023/12/23 12:08:41;;;;;;;1.10;1.10;;;8.20;99.90;;;8.66;97.32;97426.13;10412034;28;20725;-68
2023/12/23 12:13:46;;;;;;;1.25;1.20;;;8.20;99.90;;;8.64;98.33;97411.53;10419051;28;20239;-68
2023/12/23 12:18:51;;;;;;;1.33;1.30;;;8.20;99.90;;;8.56;97.46;97401.78;10494778;28;20227;-70
2023/12/23 12:23:57;;;;;;;1.03;1.03;;;8.10;99.90;;;8.32;100.00;97438.53;10469271;28;20240;-67
2023/12/23 12:29:01;;;;;;;1.30;1.30;;;8.00;99.90;;;8.52;98.47;97419.34;10478210;28;20277;-70
2023/12/23 12:34:06;;;;;;;1.00;1.00;;;8.00;99.90;;;8.69;96.71;97410.13;10426860;28;20249;-68
2023/12/23 12:39:12;;;;;;;1.48;1.48;;;8.20;99.90;;;8.66;96.53;97410.81;10439212;28;20233;-69
2023/12/23 12:44:16;;;;;;;1.30;1.30;;;8.20;99.90;;;8.61;95.76;97419.00;10422639;28;20256;-68
2023/12/23 12:49:22;;;;;;;1.17;1.17;;;8.20;99.90;;;8.72;95.89;97423.03;10485891;28;20320;-68
2023/12/23 12:54:26;;;;;;;1.20;1.20;;;8.30;99.90;;;8.70;97.18;97432.25;10427733;28;20800;-68
2023/12/23 12:59:29;;;;;;;1.30;1.30;;;8.30;99.90;;;8.60;99.02;97446.16;10462675;28;20544;-68
2023/12/23 13:04:33;;;;;;;1.58;1.48;;;8.20;99.90;;;8.51;98.98;97441.41;10470411;28;20650;-67
2023/12/23 13:09:40;;;;;;;4.32;3.00;;;8.10;99.90;;;8.43;100.00;97446.84;10491261;28;20270;-67
2023/12/23 13:14:43;;;;;;;2.13;1.93;;;8.00;99.90;;;8.48;98.42;97456.50;10421275;28;20308;-68
2023/12/23 13:19:48;;;;;;;2.37;2.17;;;8.10;99.90;;;8.50;98.46;97464.25;10414456;28;20236;-67
2023/12/23 13:24:51;;;;;;;1.80;1.70;;;8.20;99.90;;;8.49;98.31;97463.34;10420399;28;20225;-68
2023/12/23 13:29:54;;;;;;;2.03;1.83;;;8.10;99.90;;;8.51;100.00;97469.41;10481910;28;20252;-68
2023/12/23 13:35:01;;;;;;;2.00;1.50;;;8.10;99.90;;;8.38;100.00;97461.81;10430872;28;20220;-68
2023/12/23 13:40:06;;;;;;;2.07;1.83;;;8.00;99.90;;;8.32;100.00;97476.72;10427389;28;20240;-68
2023/12/23 13:45:10;;;;;;;2.67;2.47;;;8.00;99.90;;;8.35;100.00;97471.81;10466016;28;20234;-67
2023/12/23 13:50:14;;;;;;;2.90;2.70;;;8.00;99.90;;;8.25;100.00;97461.88;10481037;28;20366;-68
2023/12/23 13:55:18;;;;;;;2.37;2.17;;;8.00;99.90;;;8.32;100.00;97476.72;10460315;28;20232;-65
2023/12/23 14:00:21;;;;;;;1.40;1.40;;;8.00;99.90;;;8.35;100.00;97474.34;10437713;28;20233;-67
2023/12/23 14:05:26;;;;;;;2.30;1.70;;;8.10;99.90;;;8.38;100.00;97479.63;10486340;28;20366;-67
2023/12/23 14:10:29;;;;;;;1.60;1.60;;;8.00;99.90;;;8.45;99.29;97470.72;10485883;28;20228;-65
2023/12/23 14:15:32;;;;;;;1.80;1.70;;;8.10;99.90;;;8.40;99.96;97477.22;10466954;28;20324;-67
2023/12/23 14:20:37;;;;;;;1.83;1.73;;;8.10;99.90;;;8.36;99.58;97493.97;10457007;28;20746;-65
2023/12/23 14:25:40;;;;;;;1.40;1.30;;;8.10;99.90;;;8.47;98.40;97494.59;10484082;28;20235;-66
2023/12/23 14:30:43;;;;;;;1.23;1.23;;;8.10;99.90;;;8.63;96.28;97496.41;10415865;28;20224;-67
2023/12/23 14:35:48;;;;;;;1.30;1.30;;;8.30;99.90;;;8.60;96.45;97516.59;10408946;28;20455;-67
2023/12/23 14:40:52;;;;;;;1.53;1.40;;;8.40;99.90;;;8.59;97.45;97540.31;10404924;28;20347;-67
2023/12/23 14:45:56;;;;;;;1.10;1.10;;;8.30;99.90;;;8.61;95.74;97526.84;10410077;28;20229;-68
2023/12/23 14:51:00;;;;;;;1.23;1.20;;;8.40;99.90;;;8.65;95.40;97544.09;10407391;28;20744;-68
2023/12/23 14:56:04;;;;;;;2.50;2.30;;;8.40;99.90;;;8.49;98.69;97549.94;10408913;28;20258;-67
2023/12/23 15:01:07;;;;;;;1.50;1.40;;;8.20;99.90;;;8.45;98.84;97558.19;10486051;28;20783;-68
2023/12/23 15:06:11;;;;;;;2.80;2.60;;;8.10;99.90;;;8.44;100.00;97545.34;10425925;28;20228;-68
2023/12/23 15:11:15;;;;;;;3.72;3.42;;;8.00;99.90;;;8.40;99.10;97559.59;10413315;28;20758;-66
2023/12/23 15:16:18;;;;;;;2.20;2.10;;;8.10;99.90;;;8.54;97.24;97574.03;10405560;28;20229;-67
2023/12/23 15:21:23;;;;;;;1.87;1.77;;;8.10;99.90;;;8.44;96.94;97568.28;10410981;28;20230;-68
2023/12/23 15:26:27;;;;;;;1.80;1.70;;;8.20;99.90;;;8.54;95.95;97560.41;10402403;28;20313;-66
2023/12/23 15:31:30;;;;;;;2.07;1.93;;;8.20;99.90;;;8.49;95.35;97557.59;10411810;28;20634;-67
2023/12/23 15:36:34;;;;;;;1.90;1.80;;;8.30;99.90;;;8.48;95.07;97588.94;10403378;28;20232;-67
2023/12/23 15:41:37;;;;;;;2.73;2.53;;;8.20;99.90;;;8.54;95.52;97586.75;10405427;28;20235;-67
2023/12/23 15:46:41;;;;;;;2.00;1.87;;;8.20;99.90;;;8.61;95.07;97617.69;10437375;28;20219;-66
2023/12/23 15:51:45;;;;;;;1.90;1.80;;;8.20;99.90;;;8.57;95.70;97622.59;10419682;28;20316;-69
2023/12/23 15:56:48;;;;;;;2.47;2.33;;;8.20;99.90;;;8.63;96.10;97624.66;10422040;28;20232;-68
2023/12/23 16:01:51;;;;;;;2.05;1.90;;;8.20;99.90;;;8.65;95.25;97619.66;10423813;28;20231;-67
2023/12/23 16:06:56;;;;;;;2.37;2.27;;;8.20;99.90;;;8.70;95.16;97619.16;10425715;28;20776;-66
2023/12/23 16:11:59;;;;;;;1.53;1.43;;;8.10;99.90;;;8.76;92.96;97598.25;10480856;28;20219;-67
2023/12/23 16:17:02;;;;;;;2.00;1.90;;;8.30;99.90;;;8.54;96.14;97594.41;10498658;28;20220;-68
2023/12/23 16:22:07;;;;;;;1.50;1.50;;;8.20;99.90;;;8.70;95.81;97625.88;10493513;28;20370;-67
2023/12/23 16:27:10;;;;;;;1.80;1.70;;;8.20;99.90;;;8.69;94.77;97629.22;10498090;28;20228;-68
2023/12/23 16:32:13;;;;;;;1.57;1.47;;;8.40;99.90;;;8.67;96.49;97651.19;10493782;28;20219;-66
2023/12/23 16:37:18;;;;;;;2.20;2.00;;;8.20;99.90;;;8.53;97.13;97646.16;10495496;28;20220;-67
2023/12/23 16:42:24;;;;;;;2.13;2.03;;;8.10;99.90;;;8.61;95.64;97635.53;10428749;28;20242;-68
2023/12/23 16:47:27;;;;;;;1.40;1.40;;;8.20;99.90;;;8.60;95.68;97649.06;10420499;28;20240;-68
2023/12/23 16:52:32;;;;;;;3.23;2.93;;;8.20;99.90;;;8.50;96.14;97673.97;10417883;28;20228;-68
2023/12/23 16:57:35;;;;;;;3.20;2.90;;;8.10;99.90;;;8.57;95.29;97682.88;10412527;28;20252;-66
2023/12/23 17:02:38;;;;;;;5.83;5.30;;;8.20;99.90;;;8.68;94.63;97681.00;10432319;28;20736;-66
2023/12/23 17:07:42;;;;;;;2.03;1.93;;;8.20;99.90;;;8.59;94.60;97676.22;10459210;28;20274;-69
2023/12/23 17:12:46;;;;;;;2.10;2.00;;;8.30;99.90;;;8.62;94.37;97684.03;10459230;28;20219;-69
2023/12/23 17:17:49;;;;;;;4.32;4.00;;;8.20;99.90;;;8.69;92.79;97680.19;10470520;28;20324;-68
2023/12/23 17:22:54;;;;;;;2.63;2.43;;;8.30;99.90;;;8.64;94.27;97677.38;10463105;28;20225;-68
2023/12/23 17:27:58;;;;;;;3.10;2.90;;;8.30;99.90;;;8.65;93.32;97684.22;10482364;28;20252;-67
2023/12/23 17:33:01;;;;;;;1.77;1.67;;;8.30;99.90;;;8.65;93.07;97678.25;10422027;28;20243;-69
2023/12/23 17:38:08;;;;;;;12.82;8.68;;;8.30;99.90;;;8.67;92.64;97691.94;10436781;28;20225;-70
2023/12/23 17:43:13;;;;;;;3.60;3.10;;;8.20;99.90;;;8.70;92.67;97692.13;10457458;28;20226;-69
2023/12/23 17:48:16;;;;;;;3.95;3.65;;;8.30;99.90;;;8.77;92.04;97686.63;10422044;28;20610;-69
2023/12/23 17:53:21;;;;;;;1.70;1.60;;;8.40;99.90;;;8.73;92.87;97702.53;10489163;28;20607;-69
2023/12/23 17:58:27;;;;;;;1.87;1.73;;;8.20;99.90;;;8.59;94.82;97700.81;10490956;28;20661;-69
2023/12/23 18:03:30;;;;;;;3.60;3.37;;;8.20;99.90;;;8.59;95.31;97708.44;10486668;28;20225;-68
2023/12/23 18:08:34;;;;;;;9.73;8.73;;;8.20;99.90;;;8.54;95.79;97706.47;10465343;28;20239;-68
2023/12/23 18:13:38;;;;;;;3.17;2.97;;;8.20;99.90;;;8.48;95.86;97706.09;10493460;28;20689;-71
2023/12/23 18:18:41;;;;;;;3.35;3.05;;;8.10;99.90;;;8.40;96.01;97702.19;10450602;28;20315;-69
2023/12/23 18:23:45;;;;;;;3.23;3.03;;;8.10;99.90;;;8.49;95.44;97709.53;10429007;28;20735;-69
2023/12/23 18:28:48;;;;;;;2.72;2.63;;;8.20;99.90;;;8.47;96.51;97713.63;10409031;28;20229;-69
2023/12/23 18:33:53;;;;;;;2.30;2.10;;;8.10;99.90;;;8.42;94.98;97715.03;10411065;28;20299;-69
2023/12/23 18:38:58;;;;;;;3.30;3.10;;;8.10;99.90;;;8.43;94.87;97726.97;10409705;28;20309;-69
2023/12/23 18:44:01;;;;;;;3.60;3.30;;;8.20;99.90;;;8.49;95.70;97740.97;10443398;28;20255;-70
2023/12/23 18:49:05;;;;;;;1.97;1.87;;;8.20;99.90;;;8.47;96.06;97746.75;10467666;28;20269;-68
2023/12/23 18:54:11;;;;;;;2.37;2.27;;;8.10;99.90;;;8.45;96.03;97741.56;10489336;28;20366;-68
2023/12/23 18:59:15;;;;;;;1.83;1.73;;;8.10;99.90;;;8.35;98.82;97736.63;10449094;28;20230;-70
2023/12/23 19:04:18;;;;;;;1.60;1.50;;;8.00;99.90;;;8.13;100.00;97742.91;10476623;28;20250;-70
2023/12/23 19:09:23;;;;;;;1.80;1.70;;;7.90;99.90;;;8.03;100.00;97740.53;10483902;28;20582;-70
2023/12/23 19:14:26;;;;;;;1.97;1.30;;;7.80;99.90;;;7.85;100.00;97747.88;10479984;28;20226;-68
2023/12/23 19:19:30;;;;;;;1.53;1.53;;;7.60;99.90;;;7.78;100.00;97752.44;10480220;28;20751;-69
2023/12/23 19:24:34;;;;;;;2.10;2.00;;;7.50;99.90;;;7.78;100.00;97752.44;10441915;28;20248;-68
2023/12/23 19:29:40;;;;;;;2.60;2.40;;;7.60;99.90;;;7.77;100.00;97760.88;10468323;28;20333;-66
2023/12/23 19:34:43;;;;;;;3.03;2.60;;;7.60;99.90;;;7.76;100.00;97767.63;10481452;28;20301;-69
2023/12/23 19:39:50;;;;;;;2.00;1.90;;;7.50;99.90;;;7.79;100.00;97757.66;10450309;28;20234;-67
2023/12/23 19:45:06;;;;;;;1.60;1.60;;;7.40;99.90;;;7.70;100.00;97764.69;10453261;28;20227;-68
2023/12/23 19:50:10;;;;;;;1.67;1.67;;;7.50;99.90;;;7.66;100.00;97750.84;10447716;28;20236;-69
2023/12/23 19:55:14;;;;;;;8.00;4.77;;;7.40;99.90;;;7.64;100.00;97764.25;10484412;28;20243;-69
2023/12/23 20:00:18;;;;;;;12.40;10.57;;;7.50;99.90;;;7.73;100.00;97764.00;10486820;28;20247;-67
2023/12/23 20:05:22;;;;;;;2.10;2.00;;;7.50;99.90;;;7.70;100.00;97759.59;10485648;28;20228;-68
2023/12/23 20:10:26;;;;;;;2.20;2.07;;;7.60;99.90;;;7.70;100.00;97762.13;10480298;28;20233;-69
2023/12/23 20:15:30;;;;;;;2.53;2.43;;;7.40;99.90;;;7.71;100.00;97755.38;10489083;28;20228;-69
2023/12/23 20:20:33;;;;;;;2.27;2.17;;;7.60;99.90;;;7.76;100.00;97759.13;10485330;28;20236;-67
2023/12/23 20:25:37;;;;;;;1.97;1.87;;;7.60;99.90;;;7.77;100.00;97765.97;10493321;28;20233;-69
2023/12/23 20:30:41;;;;;;;2.57;2.47;;;7.70;99.90;;;7.83;100.00;97776.53;10441406;28;20368;-69
2023/12/23 20:35:44;;;;;;;2.27;2.07;;;7.60;99.90;;;7.82;100.00;97751.88;10410543;28;20247;-70
2023/12/23 20:40:48;;;;;;;1.73;1.63;;;7.60;99.90;;;7.83;100.00;97769.78;10419646;28;20660;-69
2023/12/23 20:45:52;;;;;;;1.90;1.90;;;7.70;99.90;;;7.82;100.00;97764.59;10417718;28;20783;-69
2023/12/23 20:50:55;;;;;;;1.57;1.57;;;7.70;99.90;;;7.80;100.00;97771.25;10416855;28;20256;-69
2023/12/23 20:56:00;;;;;;;1.60;1.50;;;7.70;99.90;;;7.83;100.00;97771.44;10425571;28;20225;-69
2023/12/23 21:01:08;;;;;;;1.77;1.70;;;7.70;99.90;;;7.88;100.00;97767.56;10473647;28;20879;-70
2023/12/23 21:06:12;;;;;;;1.83;1.73;;;7.70;99.90;;;7.82;100.00;97784.97;10494642;28;20232;-69
2023/12/23 21:11:17;;;;;;;1.70;1.60;;;7.60;99.90;;;7.76;100.00;97772.72;10468781;28;20236;-69
2023/12/23 21:16:20;;;;;;;2.60;2.50;;;7.50;99.90;;;7.82;100.00;97767.16;10414503;28;20239;-69
2023/12/23 21:21:23;;;;;;;2.87;2.67;;;7.50;99.90;;;7.84;100.00;97774.09;10463606;28;20237;-68
2023/12/23 21:26:28;;;;;;;4.80;4.30;;;7.60;99.90;;;7.83;100.00;97779.09;10486475;28;20239;-70